sensor_id;sensor_type;location;lat;lon;timestamp;P1;durP1;ratioP1;P2;durP2;ratioP2
36379;SDS011;22411;53.016;18.632;2023-12-20T00:01:32;13.73;;;10.63;;
36379;SDS011;22411;53.016;18.632;2023-12-20T00:03:58;15.00;;;11.68;;
36379;SDS011;22411;53.016;18.632;2023-12-20T00:06:27;17.10;;;11.18;;
36379;SDS011;22411;53.016;18.632;2023-12-20T00:08:53;17.00;;;12.18;;
36379;SDS011;22411;53.016;18.632;2023-12-20T00:11:19;16.60;;;10.88;;
36379;SDS011;22411;53.016;18.632;2023-12-20T00:13:44;16.23;;;11.48;;
36379;SDS011;22411;53.016;18.632;2023-12-20T00:16:10;17.40;;;10.88;;
36379;SDS011;22411;53.016;18.632;2023-12-20T00:18:36;13.77;;;10.98;;
36379;SDS011;22411;53.016;18.632;2023-12-20T00:21:02;16.27;;;11.70;;
36379;SDS011;22411;53.016;18.632;2023-12-20T00:23:27;16.00;;;11.25;;
36379;SDS011;22411;53.016;18.632;2023-12-20T00:25:53;17.98;;;11.70;;
36379;SDS011;22411;53.016;18.632;2023-12-20T00:28:19;15.75;;;12.23;;
36379;SDS011;22411;53.016;18.632;2023-12-20T00:30:45;15.23;;;11.23;;
36379;SDS011;22411;53.016;18.632;2023-12-20T00:33:10;15.15;;;10.32;;
36379;SDS011;22411;53.016;18.632;2023-12-20T00:35:36;14.77;;;11.00;;
36379;SDS011;22411;53.016;18.632;2023-12-20T00:38:02;15.63;;;10.68;;
36379;SDS011;22411;53.016;18.632;2023-12-20T00:40:27;14.63;;;10.88;;
36379;SDS011;22411;53.016;18.632;2023-12-20T00:42:53;12.95;;;10.50;;
36379;SDS011;22411;53.016;18.632;2023-12-20T00:45:19;15.38;;;11.75;;
36379;SDS011;22411;53.016;18.632;2023-12-20T00:47:44;12.77;;;9.38;;
36379;SDS011;22411;53.016;18.632;2023-12-20T00:50:11;16.33;;;11.38;;
36379;SDS011;22411;53.016;18.632;2023-12-20T00:52:36;15.70;;;11.13;;
36379;SDS011;22411;53.016;18.632;2023-12-20T00:55:02;13.20;;;9.80;;
36379;SDS011;22411;53.016;18.632;2023-12-20T00:57:29;16.77;;;10.77;;
36379;SDS011;22411;53.016;18.632;2023-12-20T00:59:55;13.77;;;9.93;;
36379;SDS011;22411;53.016;18.632;2023-12-20T01:02:20;14.60;;;9.95;;
36379;SDS011;22411;53.016;18.632;2023-12-20T01:04:46;13.98;;;10.68;;
36379;SDS011;22411;53.016;18.632;2023-12-20T01:07:11;12.77;;;8.95;;
36379;SDS011;22411;53.016;18.632;2023-12-20T01:09:38;16.10;;;10.65;;
36379;SDS011;22411;53.016;18.632;2023-12-20T01:12:03;13.25;;;9.23;;
36379;SDS011;22411;53.016;18.632;2023-12-20T01:14:29;13.30;;;9.57;;
36379;SDS011;22411;53.016;18.632;2023-12-20T01:16:55;11.13;;;8.43;;
36379;SDS011;22411;53.016;18.632;2023-12-20T01:19:20;12.18;;;8.85;;
36379;SDS011;22411;53.016;18.632;2023-12-20T01:21:46;15.00;;;9.88;;
36379;SDS011;22411;53.016;18.632;2023-12-20T01:24:12;12.32;;;9.20;;
36379;SDS011;22411;53.016;18.632;2023-12-20T01:26:38;13.20;;;9.32;;
36379;SDS011;22411;53.016;18.632;2023-12-20T01:29:04;11.35;;;8.65;;
36379;SDS011;22411;53.016;18.632;2023-12-20T01:31:29;13.10;;;9.73;;
36379;SDS011;22411;53.016;18.632;2023-12-20T01:33:55;10.77;;;7.68;;
36379;SDS011;22411;53.016;18.632;2023-12-20T01:36:21;14.05;;;10.23;;
36379;SDS011;22411;53.016;18.632;2023-12-20T01:38:47;11.70;;;9.48;;
36379;SDS011;22411;53.016;18.632;2023-12-20T01:41:12;12.50;;;9.20;;
36379;SDS011;22411;53.016;18.632;2023-12-20T01:43:38;11.10;;;8.95;;
36379;SDS011;22411;53.016;18.632;2023-12-20T01:46:03;12.02;;;8.57;;
36379;SDS011;22411;53.016;18.632;2023-12-20T01:48:30;12.45;;;9.35;;
36379;SDS011;22411;53.016;18.632;2023-12-20T01:50:58;11.95;;;8.77;;
36379;SDS011;22411;53.016;18.632;2023-12-20T01:53:25;9.13;;;7.80;;
36379;SDS011;22411;53.016;18.632;2023-12-20T01:55:52;13.23;;;8.68;;
36379;SDS011;22411;53.016;18.632;2023-12-20T01:58:20;10.30;;;8.13;;
36379;SDS011;22411;53.016;18.632;2023-12-20T02:00:47;10.82;;;8.57;;
36379;SDS011;22411;53.016;18.632;2023-12-20T02:03:13;11.15;;;8.57;;
36379;SDS011;22411;53.016;18.632;2023-12-20T02:05:39;10.93;;;8.07;;
36379;SDS011;22411;53.016;18.632;2023-12-20T02:08:06;9.15;;;7.78;;
36379;SDS011;22411;53.016;18.632;2023-12-20T02:10:32;11.45;;;9.02;;
36379;SDS011;22411;53.016;18.632;2023-12-20T02:12:58;11.77;;;8.88;;
36379;SDS011;22411;53.016;18.632;2023-12-20T02:15:23;9.80;;;8.52;;
36379;SDS011;22411;53.016;18.632;2023-12-20T02:17:49;10.38;;;8.95;;
36379;SDS011;22411;53.016;18.632;2023-12-20T02:20:15;10.32;;;8.38;;
36379;SDS011;22411;53.016;18.632;2023-12-20T02:22:41;10.63;;;9.13;;
36379;SDS011;22411;53.016;18.632;2023-12-20T02:25:07;10.60;;;8.70;;
36379;SDS011;22411;53.016;18.632;2023-12-20T02:27:33;11.68;;;8.07;;
36379;SDS011;22411;53.016;18.632;2023-12-20T02:30:00;9.43;;;7.72;;
36379;SDS011;22411;53.016;18.632;2023-12-20T02:32:25;9.55;;;7.10;;
36379;SDS011;22411;53.016;18.632;2023-12-20T02:34:51;10.60;;;8.73;;
36379;SDS011;22411;53.016;18.632;2023-12-20T02:37:17;8.93;;;7.20;;
36379;SDS011;22411;53.016;18.632;2023-12-20T02:39:43;10.50;;;8.32;;
36379;SDS011;22411;53.016;18.632;2023-12-20T02:42:09;10.90;;;8.40;;
36379;SDS011;22411;53.016;18.632;2023-12-20T02:44:34;10.15;;;7.60;;
36379;SDS011;22411;53.016;18.632;2023-12-20T02:47:00;10.30;;;7.47;;
36379;SDS011;22411;53.016;18.632;2023-12-20T02:49:26;10.68;;;8.40;;
36379;SDS011;22411;53.016;18.632;2023-12-20T02:51:51;9.95;;;7.85;;
36379;SDS011;22411;53.016;18.632;2023-12-20T02:54:20;10.23;;;7.22;;
36379;SDS011;22411;53.016;18.632;2023-12-20T02:56:47;10.32;;;7.75;;
36379;SDS011;22411;53.016;18.632;2023-12-20T02:59:13;9.82;;;7.10;;
36379;SDS011;22411;53.016;18.632;2023-12-20T03:01:43;9.50;;;6.80;;
36379;SDS011;22411;53.016;18.632;2023-12-20T03:06:36;11.25;;;7.80;;
36379;SDS011;22411;53.016;18.632;2023-12-20T03:09:02;11.43;;;8.00;;
36379;SDS011;22411;53.016;18.632;2023-12-20T03:11:28;10.90;;;7.68;;
36379;SDS011;22411;53.016;18.632;2023-12-20T03:13:54;10.25;;;7.80;;
36379;SDS011;22411;53.016;18.632;2023-12-20T03:16:20;11.30;;;7.60;;
36379;SDS011;22411;53.016;18.632;2023-12-20T03:18:46;9.63;;;7.15;;
36379;SDS011;22411;53.016;18.632;2023-12-20T03:21:12;10.88;;;7.75;;
36379;SDS011;22411;53.016;18.632;2023-12-20T03:23:38;9.13;;;7.63;;
36379;SDS011;22411;53.016;18.632;2023-12-20T03:26:06;9.77;;;6.80;;
36379;SDS011;22411;53.016;18.632;2023-12-20T03:28:33;9.38;;;7.22;;
36379;SDS011;22411;53.016;18.632;2023-12-20T03:30:59;10.68;;;8.30;;
36379;SDS011;22411;53.016;18.632;2023-12-20T03:33:24;11.35;;;8.68;;
36379;SDS011;22411;53.016;18.632;2023-12-20T03:35:50;10.25;;;7.07;;
36379;SDS011;22411;53.016;18.632;2023-12-20T03:38:16;9.80;;;7.47;;
36379;SDS011;22411;53.016;18.632;2023-12-20T03:40:42;11.43;;;8.27;;
36379;SDS011;22411;53.016;18.632;2023-12-20T03:43:07;10.45;;;7.50;;
36379;SDS011;22411;53.016;18.632;2023-12-20T03:45:33;10.68;;;7.72;;
36379;SDS011;22411;53.016;18.632;2023-12-20T03:47:59;12.45;;;8.63;;
36379;SDS011;22411;53.016;18.632;2023-12-20T03:50:25;10.68;;;7.35;;
36379;SDS011;22411;53.016;18.632;2023-12-20T03:52:51;11.38;;;7.68;;
36379;SDS011;22411;53.016;18.632;2023-12-20T03:55:18;10.80;;;7.70;;
36379;SDS011;22411;53.016;18.632;2023-12-20T03:57:44;11.35;;;7.95;;
36379;SDS011;22411;53.016;18.632;2023-12-20T04:00:10;10.15;;;8.05;;
36379;SDS011;22411;53.016;18.632;2023-12-20T04:02:36;10.90;;;7.03;;
36379;SDS011;22411;53.016;18.632;2023-12-20T04:05:03;12.80;;;8.50;;
36379;SDS011;22411;53.016;18.632;2023-12-20T04:07:30;10.63;;;8.82;;
36379;SDS011;22411;53.016;18.632;2023-12-20T04:09:56;10.43;;;7.82;;
36379;SDS011;22411;53.016;18.632;2023-12-20T04:12:22;12.45;;;8.70;;
36379;SDS011;22411;53.016;18.632;2023-12-20T04:14:48;11.82;;;8.15;;
36379;SDS011;22411;53.016;18.632;2023-12-20T04:17:14;12.52;;;8.70;;
36379;SDS011;22411;53.016;18.632;2023-12-20T04:19:41;10.27;;;8.00;;
36379;SDS011;22411;53.016;18.632;2023-12-20T04:22:07;11.15;;;8.35;;
36379;SDS011;22411;53.016;18.632;2023-12-20T04:24:34;11.02;;;7.93;;
36379;SDS011;22411;53.016;18.632;2023-12-20T04:26:59;17.05;;;9.15;;
36379;SDS011;22411;53.016;18.632;2023-12-20T04:29:25;14.52;;;9.23;;
36379;SDS011;22411;53.016;18.632;2023-12-20T04:31:51;12.75;;;8.75;;
36379;SDS011;22411;53.016;18.632;2023-12-20T04:34:17;12.82;;;7.75;;
36379;SDS011;22411;53.016;18.632;2023-12-20T04:36:43;14.32;;;7.57;;
36379;SDS011;22411;53.016;18.632;2023-12-20T04:39:10;10.73;;;8.13;;
36379;SDS011;22411;53.016;18.632;2023-12-20T04:41:36;9.48;;;7.22;;
36379;SDS011;22411;53.016;18.632;2023-12-20T04:44:02;10.45;;;6.90;;
36379;SDS011;22411;53.016;18.632;2023-12-20T04:46:28;10.13;;;7.43;;
36379;SDS011;22411;53.016;18.632;2023-12-20T04:48:54;10.60;;;8.10;;
36379;SDS011;22411;53.016;18.632;2023-12-20T04:51:19;9.07;;;6.38;;
36379;SDS011;22411;53.016;18.632;2023-12-20T04:53:45;9.23;;;6.45;;
36379;SDS011;22411;53.016;18.632;2023-12-20T04:56:11;9.32;;;6.85;;
36379;SDS011;22411;53.016;18.632;2023-12-20T04:58:37;11.15;;;7.13;;
36379;SDS011;22411;53.016;18.632;2023-12-20T05:01:03;7.70;;;5.63;;
36379;SDS011;22411;53.016;18.632;2023-12-20T05:03:30;9.93;;;6.60;;
36379;SDS011;22411;53.016;18.632;2023-12-20T05:05:56;8.13;;;6.00;;
36379;SDS011;22411;53.016;18.632;2023-12-20T05:08:22;10.48;;;6.50;;
36379;SDS011;22411;53.016;18.632;2023-12-20T05:10:47;10.80;;;6.57;;
36379;SDS011;22411;53.016;18.632;2023-12-20T05:13:13;9.18;;;5.65;;
36379;SDS011;22411;53.016;18.632;2023-12-20T05:15:39;8.68;;;6.40;;
36379;SDS011;22411;53.016;18.632;2023-12-20T05:18:05;10.10;;;6.68;;
36379;SDS011;22411;53.016;18.632;2023-12-20T05:20:30;11.55;;;6.45;;
36379;SDS011;22411;53.016;18.632;2023-12-20T05:22:56;10.27;;;6.35;;
36379;SDS011;22411;53.016;18.632;2023-12-20T05:25:22;7.50;;;5.13;;
36379;SDS011;22411;53.016;18.632;2023-12-20T05:27:48;8.60;;;4.80;;
36379;SDS011;22411;53.016;18.632;2023-12-20T05:30:13;10.05;;;4.88;;
36379;SDS011;22411;53.016;18.632;2023-12-20T05:32:39;8.95;;;5.43;;
36379;SDS011;22411;53.016;18.632;2023-12-20T05:35:05;6.90;;;4.82;;
36379;SDS011;22411;53.016;18.632;2023-12-20T05:37:31;5.43;;;3.47;;
36379;SDS011;22411;53.016;18.632;2023-12-20T05:39:57;5.00;;;3.70;;
36379;SDS011;22411;53.016;18.632;2023-12-20T05:42:22;5.35;;;2.85;;
36379;SDS011;22411;53.016;18.632;2023-12-20T05:44:48;6.95;;;4.45;;
36379;SDS011;22411;53.016;18.632;2023-12-20T05:47:14;5.53;;;3.75;;
36379;SDS011;22411;53.016;18.632;2023-12-20T05:49:39;6.55;;;4.32;;
36379;SDS011;22411;53.016;18.632;2023-12-20T05:52:05;3.45;;;2.45;;
36379;SDS011;22411;53.016;18.632;2023-12-20T05:54:31;6.05;;;2.65;;
36379;SDS011;22411;53.016;18.632;2023-12-20T05:56:57;4.00;;;2.83;;
36379;SDS011;22411;53.016;18.632;2023-12-20T05:59:22;4.30;;;2.72;;
36379;SDS011;22411;53.016;18.632;2023-12-20T06:01:48;4.50;;;2.70;;
36379;SDS011;22411;53.016;18.632;2023-12-20T06:04:14;1.98;;;1.02;;
36379;SDS011;22411;53.016;18.632;2023-12-20T06:06:40;3.47;;;1.50;;
36379;SDS011;22411;53.016;18.632;2023-12-20T06:09:07;3.47;;;1.38;;
36379;SDS011;22411;53.016;18.632;2023-12-20T06:11:33;3.25;;;0.90;;
36379;SDS011;22411;53.016;18.632;2023-12-20T06:13:58;2.08;;;1.40;;
36379;SDS011;22411;53.016;18.632;2023-12-20T06:16:24;3.08;;;0.95;;
36379;SDS011;22411;53.016;18.632;2023-12-20T06:18:50;2.75;;;0.98;;
36379;SDS011;22411;53.016;18.632;2023-12-20T06:21:16;2.45;;;0.70;;
36379;SDS011;22411;53.016;18.632;2023-12-20T06:23:41;1.65;;;1.05;;
36379;SDS011;22411;53.016;18.632;2023-12-20T06:26:07;3.33;;;0.90;;
36379;SDS011;22411;53.016;18.632;2023-12-20T06:28:33;1.98;;;0.75;;
36379;SDS011;22411;53.016;18.632;2023-12-20T06:30:59;2.70;;;1.17;;
36379;SDS011;22411;53.016;18.632;2023-12-20T06:33:26;2.92;;;1.25;;
36379;SDS011;22411;53.016;18.632;2023-12-20T06:35:52;40.97;;;19.15;;
36379;SDS011;22411;53.016;18.632;2023-12-20T06:38:18;74.50;;;32.15;;
36379;SDS011;22411;53.016;18.632;2023-12-20T06:40:44;85.78;;;37.63;;
36379;SDS011;22411;53.016;18.632;2023-12-20T06:43:11;13.07;;;10.20;;
36379;SDS011;22411;53.016;18.632;2023-12-20T06:45:37;10.38;;;9.20;;
36379;SDS011;22411;53.016;18.632;2023-12-20T06:48:03;5.45;;;2.67;;
36379;SDS011;22411;53.016;18.632;2023-12-20T06:50:29;20.17;;;16.45;;
36379;SDS011;22411;53.016;18.632;2023-12-20T06:52:55;22.52;;;17.77;;
36379;SDS011;22411;53.016;18.632;2023-12-20T06:55:21;26.23;;;21.15;;
36379;SDS011;22411;53.016;18.632;2023-12-20T06:57:46;13.60;;;11.02;;
36379;SDS011;22411;53.016;18.632;2023-12-20T07:00:12;427.38;;;223.27;;
36379;SDS011;22411;53.016;18.632;2023-12-20T07:02:38;480.05;;;302.67;;
36379;SDS011;22411;53.016;18.632;2023-12-20T07:05:04;342.55;;;245.55;;
36379;SDS011;22411;53.016;18.632;2023-12-20T07:07:30;86.45;;;71.35;;
36379;SDS011;22411;53.016;18.632;2023-12-20T07:09:56;56.10;;;48.30;;
36379;SDS011;22411;53.016;18.632;2023-12-20T07:12:21;13.93;;;12.43;;
36379;SDS011;22411;53.016;18.632;2023-12-20T07:14:47;5.72;;;4.70;;
36379;SDS011;22411;53.016;18.632;2023-12-20T07:17:13;6.20;;;3.83;;
36379;SDS011;22411;53.016;18.632;2023-12-20T07:19:41;7.78;;;4.35;;
36379;SDS011;22411;53.016;18.632;2023-12-20T07:22:07;4.30;;;1.88;;
36379;SDS011;22411;53.016;18.632;2023-12-20T07:24:33;2.65;;;1.55;;
36379;SDS011;22411;53.016;18.632;2023-12-20T07:26:59;2.83;;;1.17;;
36379;SDS011;22411;53.016;18.632;2023-12-20T07:29:25;5.35;;;2.13;;
36379;SDS011;22411;53.016;18.632;2023-12-20T07:31:52;2.10;;;1.20;;
36379;SDS011;22411;53.016;18.632;2023-12-20T07:34:20;3.83;;;2.00;;
36379;SDS011;22411;53.016;18.632;2023-12-20T07:36:47;4.75;;;2.35;;
36379;SDS011;22411;53.016;18.632;2023-12-20T07:39:13;9.05;;;5.35;;
36379;SDS011;22411;53.016;18.632;2023-12-20T07:41:39;29.10;;;15.02;;
36379;SDS011;22411;53.016;18.632;2023-12-20T07:44:05;11.38;;;6.35;;
36379;SDS011;22411;53.016;18.632;2023-12-20T07:46:32;9.55;;;4.43;;
36379;SDS011;22411;53.016;18.632;2023-12-20T07:48:57;22.83;;;13.43;;
36379;SDS011;22411;53.016;18.632;2023-12-20T07:51:23;7.47;;;4.32;;
36379;SDS011;22411;53.016;18.632;2023-12-20T07:53:49;8.30;;;5.38;;
36379;SDS011;22411;53.016;18.632;2023-12-20T07:56:18;8.45;;;5.50;;
36379;SDS011;22411;53.016;18.632;2023-12-20T07:58:45;12.25;;;7.53;;
36379;SDS011;22411;53.016;18.632;2023-12-20T08:01:13;5.90;;;3.45;;
36379;SDS011;22411;53.016;18.632;2023-12-20T08:03:39;9.05;;;8.10;;
36379;SDS011;22411;53.016;18.632;2023-12-20T08:06:04;8.98;;;4.38;;
36379;SDS011;22411;53.016;18.632;2023-12-20T08:08:30;5.93;;;2.35;;
36379;SDS011;22411;53.016;18.632;2023-12-20T08:10:56;10.00;;;5.57;;
36379;SDS011;22411;53.016;18.632;2023-12-20T08:13:24;4.38;;;3.08;;
36379;SDS011;22411;53.016;18.632;2023-12-20T08:15:51;11.27;;;7.38;;
36379;SDS011;22411;53.016;18.632;2023-12-20T08:18:18;18.92;;;10.65;;
36379;SDS011;22411;53.016;18.632;2023-12-20T08:20:44;9.57;;;5.63;;
36379;SDS011;22411;53.016;18.632;2023-12-20T08:23:10;4.05;;;2.60;;
36379;SDS011;22411;53.016;18.632;2023-12-20T08:25:35;10.25;;;5.18;;
36379;SDS011;22411;53.016;18.632;2023-12-20T08:28:04;11.48;;;5.13;;
36379;SDS011;22411;53.016;18.632;2023-12-20T08:30:30;5.57;;;3.05;;
36379;SDS011;22411;53.016;18.632;2023-12-20T08:32:56;2.40;;;1.85;;
36379;SDS011;22411;53.016;18.632;2023-12-20T08:35:24;7.88;;;1.50;;
36379;SDS011;22411;53.016;18.632;2023-12-20T08:37:50;4.07;;;1.85;;
36379;SDS011;22411;53.016;18.632;2023-12-20T08:40:16;7.85;;;2.03;;
36379;SDS011;22411;53.016;18.632;2023-12-20T08:42:42;3.22;;;1.88;;
36379;SDS011;22411;53.016;18.632;2023-12-20T08:45:07;4.78;;;2.58;;
36379;SDS011;22411;53.016;18.632;2023-12-20T08:47:34;7.13;;;3.80;;
36379;SDS011;22411;53.016;18.632;2023-12-20T08:49:59;6.70;;;2.40;;
36379;SDS011;22411;53.016;18.632;2023-12-20T08:52:26;4.50;;;3.22;;
36379;SDS011;22411;53.016;18.632;2023-12-20T08:54:54;6.22;;;3.10;;
36379;SDS011;22411;53.016;18.632;2023-12-20T08:57:20;9.95;;;6.15;;
36379;SDS011;22411;53.016;18.632;2023-12-20T08:59:50;7.47;;;4.03;;
36379;SDS011;22411;53.016;18.632;2023-12-20T09:02:16;5.60;;;2.78;;
36379;SDS011;22411;53.016;18.632;2023-12-20T09:04:42;7.43;;;4.38;;
36379;SDS011;22411;53.016;18.632;2023-12-20T09:07:24;4.35;;;2.65;;
36379;SDS011;22411;53.016;18.632;2023-12-20T09:09:51;5.00;;;3.30;;
36379;SDS011;22411;53.016;18.632;2023-12-20T09:12:18;12.77;;;6.82;;
36379;SDS011;22411;53.016;18.632;2023-12-20T09:14:45;10.50;;;6.28;;
36379;SDS011;22411;53.016;18.632;2023-12-20T09:17:11;12.90;;;5.22;;
36379;SDS011;22411;53.016;18.632;2023-12-20T09:19:37;48.50;;;20.83;;
36379;SDS011;22411;53.016;18.632;2023-12-20T09:22:04;28.67;;;14.43;;
36379;SDS011;22411;53.016;18.632;2023-12-20T09:24:30;7.20;;;5.03;;
36379;SDS011;22411;53.016;18.632;2023-12-20T09:26:56;14.45;;;8.73;;
36379;SDS011;22411;53.016;18.632;2023-12-20T09:29:22;10.77;;;6.07;;
36379;SDS011;22411;53.016;18.632;2023-12-20T09:31:48;9.02;;;4.38;;
36379;SDS011;22411;53.016;18.632;2023-12-20T09:34:15;8.70;;;4.63;;
36379;SDS011;22411;53.016;18.632;2023-12-20T09:36:41;8.57;;;3.97;;
36379;SDS011;22411;53.016;18.632;2023-12-20T09:39:12;7.63;;;3.83;;
36379;SDS011;22411;53.016;18.632;2023-12-20T09:41:40;9.93;;;5.78;;
36379;SDS011;22411;53.016;18.632;2023-12-20T09:44:08;6.18;;;3.17;;
36379;SDS011;22411;53.016;18.632;2023-12-20T09:46:42;10.05;;;4.90;;
36379;SDS011;22411;53.016;18.632;2023-12-20T09:49:09;11.02;;;4.32;;
36379;SDS011;22411;53.016;18.632;2023-12-20T09:51:36;5.22;;;2.80;;
36379;SDS011;22411;53.016;18.632;2023-12-20T09:54:04;9.10;;;4.03;;
36379;SDS011;22411;53.016;18.632;2023-12-20T09:56:31;5.75;;;3.47;;
36379;SDS011;22411;53.016;18.632;2023-12-20T09:58:56;7.00;;;4.07;;
36379;SDS011;22411;53.016;18.632;2023-12-20T10:01:23;5.15;;;3.25;;
36379;SDS011;22411;53.016;18.632;2023-12-20T10:03:50;2.35;;;1.42;;
36379;SDS011;22411;53.016;18.632;2023-12-20T10:06:16;4.25;;;1.25;;
36379;SDS011;22411;53.016;18.632;2023-12-20T10:08:42;1.67;;;0.60;;
36379;SDS011;22411;53.016;18.632;2023-12-20T10:11:08;3.65;;;1.40;;
36379;SDS011;22411;53.016;18.632;2023-12-20T10:13:36;3.65;;;1.92;;
36379;SDS011;22411;53.016;18.632;2023-12-20T10:16:05;5.47;;;1.52;;
36379;SDS011;22411;53.016;18.632;2023-12-20T10:18:32;2.83;;;1.10;;
36379;SDS011;22411;53.016;18.632;2023-12-20T10:20:58;3.83;;;1.38;;
36379;SDS011;22411;53.016;18.632;2023-12-20T10:23:25;3.15;;;1.30;;
36379;SDS011;22411;53.016;18.632;2023-12-20T10:25:57;6.43;;;2.67;;
36379;SDS011;22411;53.016;18.632;2023-12-20T10:28:28;4.32;;;1.80;;
36379;SDS011;22411;53.016;18.632;2023-12-20T10:30:59;3.00;;;1.80;;
36379;SDS011;22411;53.016;18.632;2023-12-20T10:33:26;3.33;;;1.80;;
36379;SDS011;22411;53.016;18.632;2023-12-20T10:35:52;3.33;;;1.88;;
36379;SDS011;22411;53.016;18.632;2023-12-20T10:38:19;3.83;;;1.80;;
36379;SDS011;22411;53.016;18.632;2023-12-20T10:40:45;4.45;;;1.85;;
36379;SDS011;22411;53.016;18.632;2023-12-20T10:43:11;3.33;;;1.65;;
36379;SDS011;22411;53.016;18.632;2023-12-20T10:45:38;6.72;;;3.20;;
36379;SDS011;22411;53.016;18.632;2023-12-20T10:48:03;4.10;;;1.77;;
36379;SDS011;22411;53.016;18.632;2023-12-20T10:50:30;4.20;;;2.85;;
36379;SDS011;22411;53.016;18.632;2023-12-20T10:52:57;4.00;;;1.58;;
36379;SDS011;22411;53.016;18.632;2023-12-20T10:55:24;3.03;;;1.15;;
36379;SDS011;22411;53.016;18.632;2023-12-20T10:58:07;4.72;;;1.40;;
36379;SDS011;22411;53.016;18.632;2023-12-20T11:00:40;4.28;;;1.80;;
36379;SDS011;22411;53.016;18.632;2023-12-20T11:03:09;4.28;;;1.65;;
36379;SDS011;22411;53.016;18.632;2023-12-20T11:08:17;3.13;;;1.77;;
36379;SDS011;22411;53.016;18.632;2023-12-20T11:16:22;4.60;;;1.75;;
36379;SDS011;22411;53.016;18.632;2023-12-20T11:18:50;7.20;;;2.22;;
36379;SDS011;22411;53.016;18.632;2023-12-20T11:21:16;3.40;;;2.00;;
36379;SDS011;22411;53.016;18.632;2023-12-20T11:23:42;2.88;;;1.88;;
36379;SDS011;22411;53.016;18.632;2023-12-20T11:26:08;4.22;;;2.55;;
36379;SDS011;22411;53.016;18.632;2023-12-20T11:28:34;4.22;;;1.40;;
36379;SDS011;22411;53.016;18.632;2023-12-20T11:31:01;3.63;;;1.63;;
36379;SDS011;22411;53.016;18.632;2023-12-20T11:36:00;4.93;;;1.00;;
36379;SDS011;22411;53.016;18.632;2023-12-20T11:38:32;2.40;;;0.88;;
36379;SDS011;22411;53.016;18.632;2023-12-20T11:41:04;5.57;;;1.10;;
36379;SDS011;22411;53.016;18.632;2023-12-20T11:43:37;7.05;;;1.70;;
36379;SDS011;22411;53.016;18.632;2023-12-20T11:46:07;5.25;;;1.77;;
36379;SDS011;22411;53.016;18.632;2023-12-20T11:48:35;4.10;;;1.45;;
36379;SDS011;22411;53.016;18.632;2023-12-20T11:51:02;7.25;;;1.83;;
36379;SDS011;22411;53.016;18.632;2023-12-20T11:53:34;4.72;;;1.00;;
36379;SDS011;22411;53.016;18.632;2023-12-20T11:56:00;4.00;;;1.13;;
36379;SDS011;22411;53.016;18.632;2023-12-20T11:58:28;5.55;;;1.67;;
36379;SDS011;22411;53.016;18.632;2023-12-20T12:00:54;3.95;;;1.00;;
36379;SDS011;22411;53.016;18.632;2023-12-20T12:03:20;7.15;;;1.25;;
36379;SDS011;22411;53.016;18.632;2023-12-20T12:05:49;7.00;;;1.00;;
36379;SDS011;22411;53.016;18.632;2023-12-20T12:08:15;2.08;;;0.77;;
36379;SDS011;22411;53.016;18.632;2023-12-20T12:10:42;3.97;;;0.70;;
36379;SDS011;22411;53.016;18.632;2023-12-20T12:13:07;3.67;;;1.05;;
36379;SDS011;22411;53.016;18.632;2023-12-20T12:15:33;2.47;;;0.90;;
36379;SDS011;22411;53.016;18.632;2023-12-20T12:17:59;3.30;;;0.75;;
36379;SDS011;22411;53.016;18.632;2023-12-20T12:20:25;3.97;;;1.45;;
36379;SDS011;22411;53.016;18.632;2023-12-20T12:22:57;6.82;;;1.42;;
36379;SDS011;22411;53.016;18.632;2023-12-20T12:25:28;3.88;;;1.00;;
36379;SDS011;22411;53.016;18.632;2023-12-20T12:27:55;2.15;;;0.50;;
36379;SDS011;22411;53.016;18.632;2023-12-20T12:30:21;8.32;;;1.98;;
36379;SDS011;22411;53.016;18.632;2023-12-20T12:32:47;4.25;;;0.60;;
36379;SDS011;22411;53.016;18.632;2023-12-20T12:35:13;5.20;;;0.68;;
36379;SDS011;22411;53.016;18.632;2023-12-20T12:37:40;6.38;;;1.23;;
36379;SDS011;22411;53.016;18.632;2023-12-20T12:40:07;4.15;;;0.80;;
36379;SDS011;22411;53.016;18.632;2023-12-20T12:42:36;7.30;;;0.90;;
36379;SDS011;22411;53.016;18.632;2023-12-20T12:45:02;5.78;;;0.95;;
36379;SDS011;22411;53.016;18.632;2023-12-20T12:47:28;5.53;;;0.60;;
36379;SDS011;22411;53.016;18.632;2023-12-20T12:49:54;3.13;;;1.13;;
36379;SDS011;22411;53.016;18.632;2023-12-20T12:52:20;8.43;;;0.88;;
36379;SDS011;22411;53.016;18.632;2023-12-20T12:54:45;3.53;;;0.60;;
36379;SDS011;22411;53.016;18.632;2023-12-20T12:57:13;5.32;;;0.98;;
36379;SDS011;22411;53.016;18.632;2023-12-20T12:59:40;3.45;;;0.88;;
36379;SDS011;22411;53.016;18.632;2023-12-20T13:02:06;3.85;;;1.10;;
36379;SDS011;22411;53.016;18.632;2023-12-20T13:04:35;2.50;;;0.98;;
36379;SDS011;22411;53.016;18.632;2023-12-20T13:07:01;7.00;;;1.42;;
36379;SDS011;22411;53.016;18.632;2023-12-20T13:09:27;5.43;;;0.98;;
36379;SDS011;22411;53.016;18.632;2023-12-20T13:11:53;5.88;;;3.17;;
36379;SDS011;22411;53.016;18.632;2023-12-20T13:14:19;1.77;;;0.55;;
36379;SDS011;22411;53.016;18.632;2023-12-20T13:16:44;3.35;;;0.90;;
36379;SDS011;22411;53.016;18.632;2023-12-20T13:19:11;9.02;;;1.13;;
36379;SDS011;22411;53.016;18.632;2023-12-20T13:21:36;5.53;;;1.00;;
36379;SDS011;22411;53.016;18.632;2023-12-20T13:24:02;2.95;;;0.70;;
36379;SDS011;22411;53.016;18.632;2023-12-20T13:26:28;2.97;;;0.80;;
36379;SDS011;22411;53.016;18.632;2023-12-20T13:28:54;3.97;;;0.90;;
36379;SDS011;22411;53.016;18.632;2023-12-20T13:31:20;5.97;;;1.17;;
36379;SDS011;22411;53.016;18.632;2023-12-20T13:33:46;4.65;;;1.20;;
36379;SDS011;22411;53.016;18.632;2023-12-20T13:36:12;4.55;;;0.90;;
36379;SDS011;22411;53.016;18.632;2023-12-20T13:38:38;2.35;;;0.52;;
36379;SDS011;22411;53.016;18.632;2023-12-20T13:41:04;4.03;;;1.60;;
36379;SDS011;22411;53.016;18.632;2023-12-20T13:43:32;5.07;;;0.90;;
36379;SDS011;22411;53.016;18.632;2023-12-20T13:45:59;3.47;;;0.95;;
36379;SDS011;22411;53.016;18.632;2023-12-20T13:48:25;5.55;;;0.90;;
36379;SDS011;22411;53.016;18.632;2023-12-20T13:50:51;1.40;;;0.77;;
36379;SDS011;22411;53.016;18.632;2023-12-20T13:53:17;3.72;;;1.13;;
36379;SDS011;22411;53.016;18.632;2023-12-20T13:55:42;4.38;;;1.35;;
36379;SDS011;22411;53.016;18.632;2023-12-20T13:58:08;5.20;;;1.35;;
36379;SDS011;22411;53.016;18.632;2023-12-20T14:00:35;3.17;;;1.15;;
36379;SDS011;22411;53.016;18.632;2023-12-20T14:03:03;3.47;;;1.55;;
36379;SDS011;22411;53.016;18.632;2023-12-20T14:05:29;3.47;;;1.40;;
36379;SDS011;22411;53.016;18.632;2023-12-20T14:07:55;4.55;;;1.17;;
36379;SDS011;22411;53.016;18.632;2023-12-20T14:10:24;4.60;;;1.52;;
36379;SDS011;22411;53.016;18.632;2023-12-20T14:12:53;9.50;;;0.90;;
36379;SDS011;22411;53.016;18.632;2023-12-20T14:15:19;4.57;;;1.40;;
36379;SDS011;22411;53.016;18.632;2023-12-20T14:17:45;5.57;;;1.42;;
36379;SDS011;22411;53.016;18.632;2023-12-20T14:20:11;4.95;;;1.35;;
36379;SDS011;22411;53.016;18.632;2023-12-20T14:22:40;5.20;;;1.65;;
36379;SDS011;22411;53.016;18.632;2023-12-20T14:25:12;5.22;;;1.90;;
36379;SDS011;22411;53.016;18.632;2023-12-20T14:27:39;10.95;;;1.63;;
36379;SDS011;22411;53.016;18.632;2023-12-20T14:30:06;4.90;;;2.03;;
36379;SDS011;22411;53.016;18.632;2023-12-20T14:32:34;4.22;;;1.88;;
36379;SDS011;22411;53.016;18.632;2023-12-20T14:35:06;9.70;;;2.35;;
36379;SDS011;22411;53.016;18.632;2023-12-20T14:37:36;5.72;;;1.77;;